.
WxDataArchive / Data Records for 2006-12-07
2006-12-06 December 2006 2006-12-08

Data Records for Thursday, 07 December 2006

Time	Temp	Chill	HIndex	Humid	Dewpt	 Wind 	HiWind	WindDir	Rain 	Barom 
-----	----	-----	------	-----	-----	------	------	-------	-----	----- 
00:00	30.3	30.3	30.3	62	18.9	2	5	270	0.00	30.024 
00:05	30.3	26.1	30.3	61	18.5	4	7	270	0.00	30.024 
00:10	30.1	30.1	30.1	61	18.3	1	4	270	0.00	30.024 
00:15	30.1	30.1	30.1	62	18.7	1	3	270	0.00	30.023 
00:20	30.0	30.0	30.0	62	18.6	2	4	270	0.00	30.023 
00:25	30.0	30.0	30.0	62	18.6	1	4	270	0.00	30.023 
00:30	30.0	30.0	30.0	62	18.6	2	5	270	0.00	30.024 
00:35	30.0	30.0	30.0	63	19.0	1	4	292	0.00	30.024 
00:40	29.8	29.8	29.8	63	18.8	1	4	270	0.00	30.024 
00:45	29.8	29.8	29.8	63	18.8	2	4	270	0.00	30.025 
00:50	29.8	29.8	29.8	63	18.8	2	5	248	0.00	30.025 
00:55	29.7	29.7	29.7	63	18.7	1	3	248	0.00	30.025 
01:00	29.7	29.7	29.7	64	19.0	1	3	270	0.00	30.026 
01:05	29.7	29.7	29.7	64	19.0	2	4	270	0.00	30.026 
01:10	29.7	29.7	29.7	65	19.4	1	4	270	0.00	30.026 
01:15	29.7	29.7	29.7	64	19.0	2	5	270	0.00	30.029 
01:20	29.4	29.4	29.4	65	19.1	3	13	270	0.00	30.029 
01:25	29.1	29.1	29.1	67	19.5	2	9	315	0.00	30.029 
01:30	28.8	28.8	28.8	69	19.9	3	14	270	0.00	30.035 
01:35	28.7	28.7	28.7	71	20.5	3	7	270	0.00	30.035 
01:40	28.5	28.5	28.5	72	20.6	2	5	292	0.00	30.035 
01:45	28.4	28.4	28.4	73	20.9	2	7	315	0.00	30.037 
01:50	28.2	28.2	28.2	75	21.3	3	9	270	0.00	30.037 
01:55	28.1	28.1	28.1	77	21.8	2	6	270	0.00	30.037 
02:00	27.9	27.9	27.9	77	21.6	3	6	270	0.00	30.039 
02:05	27.9	27.9	27.9	78	21.9	2	5	270	0.00	30.039 
02:10	27.9	27.9	27.9	78	21.9	2	5	270	0.00	30.039 
02:15	27.8	27.8	27.8	79	22.2	1	4	315	0.00	30.044 
02:20	27.6	27.6	27.6	80	22.3	2	5	270	0.00	30.044 
02:25	27.5	27.5	27.5	82	22.7	1	3	248	0.00	30.044 
02:30	27.2	27.2	27.2	82	22.4	2	6	270	0.00	30.050 
02:35	26.9	26.9	26.9	83	22.4	2	5	338	0.00	30.050 
02:40	26.7	26.7	26.7	83	22.2	2	9	292	0.00	30.050 
02:45	26.6	26.6	26.6	83	22.1	1	4	292	0.00	30.057 
02:50	26.3	26.3	26.3	83	21.9	2	5	338	0.00	30.057 
02:55	26.1	26.1	26.1	82	21.4	2	5	315	0.00	30.057 
03:00	26.0	26.0	26.0	81	21.0	2	6	270	0.00	30.067 
03:05	26.0	26.0	26.0	81	21.0	2	4	292	0.00	30.067 
03:10	26.1	26.1	26.1	81	21.1	2	9	292	0.00	30.067 
03:15	26.1	26.1	26.1	81	21.1	2	7	315	0.00	30.074 
03:20	26.1	26.1	26.1	80	20.8	3	9	292	0.00	30.074 
03:25	25.8	25.8	25.8	78	19.9	3	8	292	0.00	30.074 
03:30	25.4	20.5	25.4	75	18.6	4	10	315	0.00	30.088 
03:35	25.3	25.3	25.3	75	18.5	3	9	338	0.00	30.088 
03:40	25.3	25.3	25.3	75	18.5	2	6	270	0.00	30.088 
03:45	25.1	25.1	25.1	74	18.0	3	7	315	0.00	30.092 
03:50	25.0	25.0	25.0	74	17.9	2	9	315	0.00	30.092 
03:55	24.7	19.6	24.7	75	17.9	4	8	315	0.00	30.092 
04:00	24.4	24.4	24.4	77	18.2	3	9	292	0.00	30.102 
04:05	24.1	19.0	24.1	77	18.0	4	10	315	0.00	30.102 
04:10	23.8	23.8	23.8	79	18.3	2	6	292	0.00	30.102 
04:15	23.5	23.5	23.5	80	18.3	3	9	292	0.00	30.110 
04:20	23.2	23.2	23.2	81	18.3	3	7	315	0.00	30.110 
04:25	22.9	22.9	22.9	81	18.0	3	7	315	0.00	30.110 
04:30	22.9	22.9	22.9	80	17.7	3	7	315	0.00	30.111 
04:35	22.9	22.9	22.9	81	18.0	2	5	315	0.00	30.111 
04:40	22.9	22.9	22.9	80	17.7	3	6	315	0.00	30.111 
04:45	22.7	22.7	22.7	79	17.2	2	5	315	0.00	30.121 
04:50	22.5	22.5	22.5	77	16.4	3	6	338	0.00	30.121 
04:55	22.4	22.4	22.4	76	16.0	2	5	292	0.00	30.121 
05:00	22.2	22.2	22.2	75	15.5	1	5	338	0.00	30.118 
05:05	22.2	22.2	22.2	74	15.2	2	6	292	0.00	30.118 
05:10	22.1	22.1	22.1	75	15.4	1	5	338	0.00	30.118 
05:15	21.9	21.9	21.9	76	15.5	1	3	270	0.00	30.128 
05:20	21.9	21.9	21.9	77	15.8	2	6	315	0.00	30.128 
05:25	21.9	21.9	21.9	76	15.5	2	10	315	0.00	30.128 
05:30	21.9	21.9	21.9	75	15.2	2	5	315	0.00	30.139 
05:35	21.8	21.8	21.8	75	15.1	2	4	270	0.00	30.139 
05:40	21.6	21.6	21.6	75	14.9	2	6	315	0.00	30.139 
05:45	21.6	21.6	21.6	75	14.9	2	5	338	0.00	30.145 
05:50	21.6	21.6	21.6	76	15.2	2	4	270	0.00	30.145 
05:55	21.4	21.4	21.4	76	15.0	2	6	338	0.00	30.145 
06:00	21.4	21.4	21.4	76	15.0	3	6	270	0.00	30.161 
06:05	21.3	21.3	21.3	75	14.6	3	6	338	0.00	30.161 
06:10	21.1	21.1	21.1	75	14.4	2	5	315	0.00	30.161 
06:15	21.0	21.0	21.0	75	14.3	1	3	292	0.00	30.174 
06:20	20.8	20.8	20.8	74	13.8	2	6	315	0.00	30.174 
06:25	20.6	20.6	20.6	74	13.7	1	4	315	0.00	30.174 
06:30	20.6	20.6	20.6	74	13.7	1	4	315	0.00	30.181 
06:35	20.5	20.5	20.5	74	13.6	2	4	315	0.00	30.181 
06:40	20.5	20.5	20.5	74	13.6	1	4	315	0.00	30.181 
06:45	20.2	20.2	20.2	74	13.3	1	3	270	0.00	30.193 
06:50	20.2	20.2	20.2	74	13.3	2	6	315	0.00	30.193 
06:55	20.0	20.0	20.0	75	13.4	1	3	292	0.00	30.193 
07:00	20.0	20.0	20.0	75	13.4	1	5	292	0.00	30.200 
07:05	20.0	20.0	20.0	75	13.4	1	5	292	0.00	30.200 
07:10	20.2	20.2	20.2	74	13.3	1	4	315	0.00	30.200 
07:15	20.2	20.2	20.2	74	13.3	2	5	292	0.00	30.216 
07:20	20.2	20.2	20.2	74	13.3	1	4	315	0.00	30.216 
07:25	20.0	20.0	20.0	74	13.1	1	4	292	0.00	30.216 
07:30	20.0	20.0	20.0	74	13.1	1	4	338	0.00	30.229 
07:35	19.7	19.7	19.7	74	12.8	2	7	315	0.00	30.229 
07:40	19.7	19.7	19.7	74	12.8	2	6	270	0.00	30.229 
07:45	19.7	19.7	19.7	74	12.8	2	6	315	0.00	30.235 
07:50	19.7	19.7	19.7	76	13.4	2	5	270	0.00	30.235 
07:55	19.5	19.5	19.5	78	13.8	1	5	315	0.00	30.235 
08:00	19.2	19.2	19.2	81	14.3	1	5	292	0.00	30.250 
08:05	18.9	18.9	18.9	82	14.3	3	7	292	0.00	30.250 
08:10	18.6	18.6	18.6	81	13.8	2	9	292	0.00	30.250 
08:15	18.4	18.4	18.4	80	13.3	1	4	315	0.00	30.263 
08:20	18.6	18.6	18.6	81	13.8	1	3	338	0.00	30.263 
08:25	18.8	18.8	18.8	82	14.2	0	2	338	0.00	30.263 
08:30	18.9	18.9	18.9	82	14.3	2	4	315	0.00	30.273 
08:35	18.9	18.9	18.9	81	14.1	1	5	338	0.00	30.273 
08:40	19.1	19.1	19.1	80	14.0	1	5	292	0.00	30.273 
08:45	19.2	19.2	19.2	79	13.8	2	5	0	0.00	30.282 
08:50	19.2	19.2	19.2	78	13.5	1	4	292	0.00	30.282 
08:55	19.4	19.4	19.4	76	13.1	1	3	338	0.00	30.282 
09:00	19.2	19.2	19.2	75	12.6	1	4	292	0.00	30.294 
09:05	19.2	19.2	19.2	75	12.6	1	5	338	0.00	30.294 
09:10	19.2	19.2	19.2	76	12.9	1	3	315	0.00	30.294 
09:15	19.2	19.2	19.2	77	13.2	1	3	338	0.00	30.301 
09:20	19.2	19.2	19.2	75	12.6	2	7	292	0.00	30.301 
09:25	19.7	19.7	19.7	76	13.4	1	5	270	0.00	30.301 
09:30	20.0	20.0	20.0	74	13.1	1	4	270	0.00	30.313 
09:35	20.2	20.2	20.2	74	13.3	2	5	270	0.00	30.313 
09:40	20.3	20.3	20.3	73	13.1	1	4	338	0.00	30.313 
09:45	20.5	20.5	20.5	71	12.6	2	6	0	0.00	30.324 
09:50	20.6	20.6	20.6	67	11.4	2	7	315	0.00	30.324 
09:55	20.8	20.8	20.8	67	11.6	2	7	315	0.00	30.324 
10:00	20.8	20.8	20.8	65	10.9	2	5	338	0.00	30.329 
10:05	20.5	20.5	20.5	64	10.3	2	7	338	0.00	30.329 
10:10	20.3	20.3	20.3	65	10.4	1	4	315	0.00	30.329 
10:15	20.6	20.6	20.6	64	10.4	2	6	315	0.00	30.343 
10:20	21.0	21.0	21.0	64	10.8	2	7	315	0.00	30.343 
10:25	21.3	21.3	21.3	65	11.4	1	6	0	0.00	30.343 
10:30	21.4	21.4	21.4	62	10.4	2	7	338	0.00	30.351 
10:35	21.3	21.3	21.3	62	10.3	2	7	315	0.00	30.351 
10:40	21.1	21.1	21.1	60	9.4	2	10	338	0.00	30.351 
10:45	21.4	21.4	21.4	63	10.8	2	6	338	0.00	30.358 
10:50	21.6	21.6	21.6	62	10.6	2	6	0	0.00	30.358 
10:55	21.4	21.4	21.4	60	9.7	3	6	315	0.00	30.358 
11:00	21.8	21.8	21.8	60	10.1	2	9	315	0.00	30.366 
11:05	21.9	21.9	21.9	60	10.2	2	5	338	0.00	30.366 
11:10	21.6	21.6	21.6	59	9.5	2	10	315	0.00	30.366 
11:15	21.8	21.8	21.8	61	10.4	2	5	22	0.00	30.371 
11:20	21.9	21.9	21.9	60	10.2	1	6	0	0.00	30.371 
11:25	22.2	22.2	22.2	60	10.5	2	6	315	0.00	30.371 
11:30	22.4	22.4	22.4	59	10.3	2	6	315	0.00	30.373 
11:35	21.9	21.9	21.9	56	8.6	3	6	0	0.00	30.373 
11:40	21.9	21.9	21.9	58	9.4	1	5	338	0.00	30.373 
11:45	22.2	22.2	22.2	56	8.9	2	6	270	0.00	30.374 
11:50	22.4	22.4	22.4	55	8.7	3	10	315	0.00	30.374 
11:55	22.2	22.2	22.2	54	8.1	3	6	315	0.00	30.374 
12:00	22.1	22.1	22.1	52	7.2	3	10	315	0.00	30.377 
12:05	22.2	22.2	22.2	54	8.1	2	7	292	0.00	30.377 
12:10	22.9	22.9	22.9	52	7.9	2	6	270	0.00	30.377 
12:15	23.0	23.0	23.0	53	8.4	2	5	338	0.00	30.383 
12:20	23.0	23.0	23.0	49	6.7	2	7	315	0.00	30.383 
12:25	23.2	23.2	23.2	53	8.6	2	6	292	0.00	30.383 
12:30	23.3	23.3	23.3	54	9.1	2	6	338	0.00	30.385 
12:35	23.8	23.8	23.8	56	10.4	2	7	338	0.00	30.385 
12:40	23.6	23.6	23.6	54	9.4	3	7	292	0.00	30.385 
12:45	23.5	23.5	23.5	56	10.1	3	7	315	0.00	30.385 
12:50	23.8	23.8	23.8	58	11.2	2	6	270	0.00	30.385 
12:55	24.2	24.2	24.2	56	10.8	2	6	270	0.00	30.385 
13:00	24.4	24.4	24.4	54	10.2	3	11	270	0.00	30.385 
13:05	24.1	24.1	24.1	53	9.5	2	7	292	0.00	30.385 
13:10	23.8	23.8	23.8	54	9.6	3	9	292	0.00	30.385 
13:15	23.9	23.9	23.9	54	9.7	3	9	270	0.00	30.388 
13:20	24.1	24.1	24.1	53	9.5	3	9	270	0.00	30.388 
13:25	24.4	24.4	24.4	51	8.9	3	7	270	0.00	30.388 
13:30	24.2	24.2	24.2	52	9.1	3	7	270	0.00	30.391 
13:35	24.4	24.4	24.4	51	8.9	2	6	270	0.00	30.391 
13:40	24.2	24.2	24.2	49	7.8	3	13	292	0.00	30.391 
13:45	23.2	17.9	23.2	51	7.8	4	10	292	0.00	30.399 
13:50	22.9	22.9	22.9	53	8.4	2	5	338	0.00	30.399 
13:55	23.3	23.3	23.3	58	10.7	2	5	315	0.00	30.399 
14:00	23.8	23.8	23.8	57	10.8	3	6	270	0.00	30.405 
14:05	23.8	23.8	23.8	54	9.6	3	9	270	0.00	30.405 
14:10	23.5	23.5	23.5	57	10.5	3	9	338	0.00	30.405 
14:15	23.3	23.3	23.3	56	10.0	2	8	315	0.00	30.415 
14:20	23.0	23.0	23.0	55	9.3	3	11	315	0.00	30.415 
14:25	22.9	22.9	22.9	56	9.6	2	6	270	0.00	30.415 
14:30	23.0	23.0	23.0	56	9.7	2	6	338	0.00	30.422 
14:35	22.9	22.9	22.9	57	10.0	3	9	338	0.00	30.422 
14:40	22.7	22.7	22.7	58	10.2	2	10	315	0.00	30.422 
14:45	23.0	23.0	23.0	60	11.2	1	5	315	0.00	30.423 
14:50	23.3	23.3	23.3	59	11.1	3	7	338	0.00	30.423 
14:55	23.0	23.0	23.0	58	10.5	2	6	338	0.00	30.423 
15:00	22.9	22.9	22.9	60	11.1	2	5	338	0.00	30.426 
15:05	23.0	23.0	23.0	61	11.6	2	5	338	0.00	30.426 
15:10	23.0	23.0	23.0	62	11.9	2	5	292	0.00	30.426 
15:15	23.2	23.2	23.2	60	11.4	2	4	338	0.00	30.433 
15:20	22.9	22.9	22.9	60	11.1	2	6	270	0.00	30.433 
15:25	22.7	22.7	22.7	62	11.7	2	6	270	0.00	30.433 
15:30	22.7	22.7	22.7	64	12.4	1	5	270	0.00	30.438 
15:35	22.5	22.5	22.5	63	11.8	2	12	292	0.00	30.438 
15:40	22.9	22.9	22.9	63	12.2	2	6	270	0.00	30.438 
15:45	23.0	23.0	23.0	62	11.9	2	5	270	0.00	30.442 
15:50	22.9	22.9	22.9	63	12.2	1	4	270	0.00	30.442 
15:55	22.7	22.7	22.7	65	12.7	1	5	270	0.00	30.442 
16:00	22.5	22.5	22.5	66	12.9	2	5	270	0.00	30.451 
16:05	22.2	22.2	22.2	67	12.9	2	4	270	0.00	30.451 
16:10	21.9	21.9	21.9	68	13.0	1	5	248	0.00	30.451 
16:15	21.8	21.8	21.8	69	13.2	2	3	248	0.00	30.458 
16:20	21.4	21.4	21.4	72	13.8	2	6	270	0.00	30.458 
16:25	21.3	21.3	21.3	74	14.3	2	4	248	0.00	30.458 
16:30	21.1	21.1	21.1	74	14.1	1	4	270	0.00	30.469 
16:35	20.8	20.8	20.8	75	14.1	1	5	270	0.00	30.469 
16:40	20.6	20.6	20.6	77	14.6	1	2	270	0.00	30.469 
16:45	20.5	20.5	20.5	77	14.5	1	4	270	0.00	30.474 
16:50	20.5	20.5	20.5	79	15.0	1	2	270	0.00	30.474 
16:55	20.5	20.5	20.5	79	15.0	1	4	338	0.00	30.474 
17:00	20.5	20.5	20.5	80	15.3	0	2	315	0.00	30.477 
17:05	20.5	20.5	20.5	81	15.6	1	2	248	0.00	30.477 
17:10	20.5	20.5	20.5	81	15.6	1	4	248	0.00	30.477 
17:15	20.5	20.5	20.5	81	15.6	1	3	270	0.00	30.477 
17:20	20.5	20.5	20.5	81	15.6	1	6	315	0.00	30.477 
17:25	20.5	20.5	20.5	81	15.6	2	6	270	0.00	30.477 
17:30	20.3	20.3	20.3	81	15.4	2	6	338	0.00	30.490 
17:35	20.5	20.5	20.5	81	15.6	1	5	248	0.00	30.490 
17:40	20.3	20.3	20.3	81	15.4	2	6	270	0.00	30.490 
17:45	20.3	20.3	20.3	82	15.7	1	4	270	0.00	30.494 
17:50	20.2	20.2	20.2	82	15.6	2	4	270	0.00	30.494 
17:55	20.0	20.0	20.0	82	15.4	2	5	270	0.00	30.494 
18:00	19.9	19.9	19.9	81	15.0	2	5	270	0.00	30.500 
18:05	19.9	19.9	19.9	81	15.0	1	7	270	0.00	30.500 
18:10	19.7	19.7	19.7	80	14.6	2	6	270	0.00	30.500 
18:15	19.7	19.7	19.7	78	14.0	2	6	270	0.00	30.509 
18:20	19.4	19.4	19.4	76	13.1	3	7	270	0.00	30.509 
18:25	19.2	19.2	19.2	73	12.0	2	5	315	0.00	30.509 
18:30	19.1	19.1	19.1	73	11.9	2	7	270	0.00	30.517 
18:35	18.9	18.9	18.9	73	11.7	2	9	270	0.00	30.517 
18:40	18.6	18.6	18.6	72	11.1	2	7	315	0.00	30.517 
18:45	18.3	18.3	18.3	71	10.5	2	6	270	0.00	30.526 
18:50	18.1	18.1	18.1	72	10.6	2	6	270	0.00	30.526 
18:55	18.0	18.0	18.0	72	10.5	1	4	270	0.00	30.526 
19:00	17.7	17.7	17.7	73	10.5	2	4	270	0.00	30.530 
19:05	17.3	17.3	17.3	73	10.2	2	6	270	0.00	30.530 
19:10	17.2	17.2	17.2	73	10.1	2	7	270	0.00	30.530 
19:15	16.9	16.9	16.9	74	10.1	1	4	270	0.00	30.537 
19:20	16.5	16.5	16.5	74	9.7	2	7	270	0.00	30.537 
19:25	16.4	16.4	16.4	75	9.9	2	5	270	0.00	30.537 
19:30	16.2	16.2	16.2	75	9.7	1	4	292	0.00	30.544 
19:35	16.1	16.1	16.1	75	9.6	2	6	270	0.00	30.544 
19:40	15.9	15.9	15.9	73	8.8	2	7	270	0.00	30.544 
19:45	15.7	15.7	15.7	73	8.6	2	5	270	0.00	30.547 
19:50	15.7	15.7	15.7	72	8.3	2	9	270	0.00	30.547 
19:55	15.6	15.6	15.6	72	8.2	2	5	270	0.00	30.547 
20:00	15.4	15.4	15.4	71	7.7	2	6	270	0.00	30.546 
20:05	15.2	15.2	15.2	70	7.2	1	4	270	0.00	30.546 
20:10	15.1	15.1	15.1	69	6.8	2	7	270	0.00	30.546 
20:15	15.1	15.1	15.1	68	6.5	2	9	270	0.00	30.544 
20:20	15.1	15.1	15.1	67	6.1	2	4	270	0.00	30.544 
20:25	15.1	15.1	15.1	65	5.5	3	7	270	0.00	30.544 
20:30	14.9	14.9	14.9	65	5.3	2	6	270	0.00	30.544 
20:35	14.8	14.8	14.8	65	5.2	3	9	270	0.00	30.544 
20:40	14.8	14.8	14.8	65	5.2	2	10	270	0.00	30.544 
20:45	14.6	14.6	14.6	65	5.0	2	7	270	0.00	30.542 
20:50	14.6	14.6	14.6	65	5.0	2	5	270	0.00	30.542 
20:55	14.4	14.4	14.4	64	4.5	2	6	270	0.00	30.542 
21:00	14.4	14.4	14.4	64	4.5	2	7	270	0.00	30.544 
21:05	14.4	14.4	14.4	64	4.5	2	6	270	0.00	30.544 
21:10	14.3	14.3	14.3	64	4.4	2	10	270	0.00	30.544 
21:15	14.3	14.3	14.3	64	4.4	2	7	270	0.00	30.541 
21:20	14.3	14.3	14.3	64	4.4	2	9	270	0.00	30.541 
21:25	14.3	14.3	14.3	64	4.4	2	5	270	0.00	30.541 
21:30	14.3	14.3	14.3	64	4.4	3	9	270	0.00	30.539 
21:35	14.3	14.3	14.3	64	4.4	2	5	270	0.00	30.539 
21:40	14.1	14.1	14.1	64	4.2	1	4	270	0.00	30.539 
21:45	14.0	14.0	14.0	65	4.4	3	9	270	0.00	30.540 
21:50	13.8	13.8	13.8	65	4.2	2	6	270	0.00	30.540 
21:55	13.6	13.6	13.6	66	4.4	2	8	270	0.00	30.540 
22:00	13.5	13.5	13.5	67	4.6	2	10	270	0.00	30.538 
22:05	13.3	13.3	13.3	67	4.4	2	9	270	0.00	30.538 
22:10	13.1	13.1	13.1	68	4.6	2	7	270	0.00	30.538 
22:15	12.9	12.9	12.9	68	4.4	1	6	270	0.00	30.544 
22:20	12.8	12.8	12.8	68	4.3	2	5	248	0.00	30.544 
22:25	12.8	12.8	12.8	69	4.6	2	7	270	0.00	30.544 
22:30	12.6	12.6	12.6	69	4.4	1	6	270	0.00	30.543 
22:35	12.4	12.4	12.4	69	4.2	2	9	270	0.00	30.543 
22:40	12.3	12.3	12.3	69	4.1	1	5	270	0.00	30.543 
22:45	12.1	12.1	12.1	70	4.2	1	5	270	0.00	30.546 
22:50	12.1	12.1	12.1	70	4.2	2	6	248	0.00	30.546 
22:55	11.9	11.9	11.9	70	4.0	1	5	270	0.00	30.546 
23:00	11.9	11.9	11.9	70	4.0	2	7	270	0.00	30.544 
23:05	11.9	11.9	11.9	70	4.0	0	2	248	0.00	30.544 
23:10	11.9	11.9	11.9	70	4.0	1	3	248	0.00	30.544 
23:15	11.7	11.7	11.7	71	4.1	1	5	248	0.00	30.544 
23:20	11.7	11.7	11.7	71	4.1	1	4	270	0.00	30.544 
23:25	11.7	11.7	11.7	71	4.1	1	6	248	0.00	30.544 
23:30	11.6	11.6	11.6	71	4.0	1	4	248	0.00	30.542 
23:35	11.6	11.6	11.6	71	4.0	1	5	270	0.00	30.542 
23:40	11.7	11.7	11.7	71	4.1	2	6	248	0.00	30.542 
23:45	11.6	11.6	11.6	71	4.0	1	4	248	0.00	30.540 
23:50	11.6	11.6	11.6	71	4.0	1	5	248	0.00	30.540 
23:55	11.6	11.6	11.6	71	4.0	1	4	270	0.00	30.540 

CoCoRaHS
IN-AL-39
A2 Web Hosting
Creative Commons License
GoDaddy
Look for:

loaded 2017-10-16 20:29:12 • last modified 2010-11-18 10:43:29
Privacy PolicyDisclaimer
• wx.awcolley.com is powered by PmWiki v.2002016 •
• all content (unless otherwise noted) © 2017 A W Colley